Time;durP1;ratioP1;P1;durP2;ratioP2;P2;SDS_P1;SDS_P2;PMS_P1;PMS_P2;Temp;Humidity;BMP_temperature;BMP_pressure;BME280_temperature;BME280_humidity;BME280_pressure;Samples;Min_cycle;Max_cycle;Signal;HPM_P1;HPM_P2
2021/09/09 00:01:13;;;;;;;6.73;4.97;;;;;;;;;;4536937;28;20045;-62
2021/09/09 00:03:24;;;;;;;5.53;4.33;;;;;;;;;;4536510;28;20037;-62
2021/09/09 00:05:35;;;;;;;5.55;4.32;;;;;;;;;;4536806;28;20214;-62
2021/09/09 00:07:46;;;;;;;7.28;5.32;;;;;;;;;;4537336;28;20048;-63
2021/09/09 00:09:57;;;;;;;;;;;;;;;;;;4537075;28;20036;-62
2021/09/09 00:12:08;;;;;;;7.60;5.72;;;;;;;;;;4536847;28;20677;-62
2021/09/09 00:14:19;;;;;;;6.37;4.87;;;;;;;;;;4535029;28;20021;-63
2021/09/09 00:16:29;;;;;;;6.78;4.78;;;;;;;;;;4536920;28;20032;-64
2021/09/09 00:18:43;;;;;;;7.78;5.00;;;;;;;;;;4536690;28;20037;-62
2021/09/09 00:20:54;;;;;;;7.28;5.25;;;;;;;;;;4536671;28;20621;-62
2021/09/09 00:23:06;;;;;;;7.13;5.05;;;;;;;;;;4536094;28;20113;-63
2021/09/09 00:25:18;;;;;;;6.32;4.88;;;;;;;;;;4536755;28;20040;-62
2021/09/09 00:27:28;;;;;;;7.50;5.20;;;;;;;;;;4536931;28;20094;-62
2021/09/09 00:29:39;;;;;;;6.97;5.27;;;;;;;;;;4537046;28;20045;-62
2021/09/09 00:31:50;;;;;;;6.88;5.18;;;;;;;;;;4536782;28;20976;-62
2021/09/09 00:34:01;;;;;;;6.97;5.03;;;;;;;;;;4536747;28;20029;-62
2021/09/09 00:36:12;;;;;;;7.97;5.07;;;;;;;;;;4551667;28;26684;-63
2021/09/09 00:38:22;;;;;;;6.88;4.90;;;;;;;;;;4535239;28;20208;-62
2021/09/09 00:40:33;;;;;;;7.57;5.10;;;;;;;;;;4535449;28;20045;-63
2021/09/09 00:42:43;;;;;;;6.13;4.80;;;;;;;;;;4536404;28;20105;-63
2021/09/09 00:44:54;;;;;;;6.93;5.30;;;;;;;;;;4536673;28;20064;-62
2021/09/09 00:47:07;;;;;;;6.57;4.90;;;;;;;;;;4536619;28;20436;-62
2021/09/09 00:49:17;;;;;;;6.63;4.93;;;;;;;;;;4536627;28;20048;-62
2021/09/09 00:51:28;;;;;;;6.80;5.20;;;;;;;;;;4536444;28;32682;-62
2021/09/09 00:53:41;;;;;;;7.00;5.07;;;;;;;;;;4536867;28;20063;-63
2021/09/09 00:55:52;;;;;;;6.50;5.10;;;;;;;;;;4536208;28;20598;-62
2021/09/09 00:58:02;;;;;;;7.27;5.40;;;;;;;;;;4536817;28;20066;-63
2021/09/09 01:00:14;;;;;;;7.20;5.13;;;;;;;;;;4535840;28;24290;-62
2021/09/09 01:02:25;;;;;;;7.93;5.50;;;;;;;;;;4535988;28;20017;-62
2021/09/09 01:04:35;;;;;;;6.37;4.77;;;;;;;;;;4536235;28;20029;-63
2021/09/09 01:06:48;;;;;;;6.93;4.87;;;;;;;;;;4536705;28;20029;-62
2021/09/09 01:08:58;;;;;;;7.03;5.18;;;;;;;;;;4536236;28;20033;-63
2021/09/09 01:11:09;;;;;;;6.97;5.25;;;;;;;;;;4536001;28;20049;-63
2021/09/09 01:13:19;;;;;;;6.63;5.27;;;;;;;;;;4537040;28;20104;-62
2021/09/09 01:15:30;;;;;;;6.10;4.63;;;;;;;;;;4536072;28;20573;-62
2021/09/09 01:17:41;;;;;;;7.47;5.07;;;;;;;;;;4536189;28;20044;-63
2021/09/09 01:19:51;;;;;;;8.40;5.30;;;;;;;;;;4536096;28;20519;-63
2021/09/09 01:22:03;;;;;;;6.13;4.80;;;;;;;;;;4536358;28;20033;-62
2021/09/09 01:24:19;;;;;;;6.90;5.28;;;;;;;;;;4536799;28;20172;-62
2021/09/09 01:26:30;;;;;;;7.45;5.40;;;;;;;;;;4535121;28;20039;-62
2021/09/09 01:28:41;;;;;;;6.47;4.50;;;;;;;;;;4536018;28;20555;-63
2021/09/09 01:30:51;;;;;;;5.43;3.92;;;;;;;;;;4523812;28;20030;-62
2021/09/09 01:33:02;;;;;;;5.20;4.07;;;;;;;;;;4536663;28;20041;-63
2021/09/09 01:35:12;;;;;;;5.23;4.00;;;;;;;;;;4551182;28;20592;-63
2021/09/09 01:37:22;;;;;;;6.50;4.43;;;;;;;;;;4535915;28;20025;-62
2021/09/09 01:39:33;;;;;;;6.83;4.70;;;;;;;;;;4535939;28;20029;-62
2021/09/09 01:41:43;;;;;;;6.10;4.50;;;;;;;;;;4536133;28;20599;-62
2021/09/09 01:43:54;;;;;;;7.70;4.63;;;;;;;;;;4551313;28;20028;-62
2021/09/09 01:46:04;;;;;;;6.90;4.23;;;;;;;;;;4536027;28;20750;-62
2021/09/09 01:48:15;;;;;;;6.30;4.47;;;;;;;;;;4535985;28;20127;-62
2021/09/09 01:50:26;;;;;;;6.37;4.20;;;;;;;;;;4534999;28;22934;-63
2021/09/09 01:52:36;;;;;;;6.32;4.70;;;;;;;;;;4535294;28;20828;-63
2021/09/09 01:54:46;;;;;;;7.23;4.83;;;;;;;;;;4534925;28;20036;-62
2021/09/09 01:56:57;;;;;;;6.90;4.60;;;;;;;;;;4535036;28;33110;-62
2021/09/09 01:59:07;;;;;;;5.97;4.23;;;;;;;;;;4534230;28;20029;-63
2021/09/09 02:01:18;;;;;;;6.60;4.90;;;;;;;;;;4535733;28;20069;-62
2021/09/09 02:03:29;;;;;;;7.50;4.90;;;;;;;;;;4535607;28;20091;-63
2021/09/09 02:05:39;;;;;;;6.77;4.77;;;;;;;;;;4535663;28;20184;-62
2021/09/09 02:07:49;;;;;;;7.23;4.77;;;;;;;;;;4535605;28;20040;-62
2021/09/09 02:10:00;;;;;;;6.43;4.97;;;;;;;;;;4529475;28;20045;-63
2021/09/09 02:12:10;;;;;;;6.10;4.83;;;;;;;;;;4535256;28;20041;-63
2021/09/09 02:14:21;;;;;;;6.10;4.70;;;;;;;;;;4535560;28;20041;-62
2021/09/09 02:16:31;;;;;;;6.23;4.40;;;;;;;;;;4533612;28;24057;-63
2021/09/09 02:18:41;;;;;;;9.73;4.77;;;;;;;;;;4535042;28;27318;-63
2021/09/09 02:20:52;;;;;;;5.13;4.20;;;;;;;;;;4534541;28;20041;-62
2021/09/09 02:23:02;;;;;;;7.50;5.07;;;;;;;;;;4526863;28;20047;-63
2021/09/09 02:25:13;;;;;;;7.00;4.90;;;;;;;;;;4533967;28;20119;-63
2021/09/09 02:27:23;;;;;;;6.80;4.60;;;;;;;;;;4535035;28;20044;-62
2021/09/09 02:29:34;;;;;;;5.43;4.27;;;;;;;;;;4535307;28;20060;-63
2021/09/09 02:31:44;;;;;;;7.13;4.50;;;;;;;;;;4535203;28;20557;-63
2021/09/09 02:33:54;;;;;;;5.80;4.10;;;;;;;;;;4530472;28;20112;-62
2021/09/09 02:36:05;;;;;;;7.27;4.60;;;;;;;;;;4534990;28;20122;-62
2021/09/09 02:38:16;;;;;;;5.68;4.35;;;;;;;;;;4516954;28;20046;-62
2021/09/09 02:40:26;;;;;;;6.17;4.63;;;;;;;;;;4535276;28;20142;-61
2021/09/09 02:42:37;;;;;;;6.23;4.57;;;;;;;;;;4535579;28;20037;-62
2021/09/09 02:44:47;;;;;;;7.33;4.80;;;;;;;;;;4534491;28;21794;-62
2021/09/09 02:46:58;;;;;;;5.70;4.60;;;;;;;;;;4534903;28;20519;-61
2021/09/09 02:49:08;;;;;;;8.07;4.53;;;;;;;;;;4534777;28;20062;-62
2021/09/09 02:51:19;;;;;;;6.30;4.47;;;;;;;;;;4533998;28;20040;-62
2021/09/09 02:53:29;;;;;;;6.63;4.53;;;;;;;;;;4534532;28;26732;-64
2021/09/09 02:55:39;;;;;;;6.00;4.40;;;;;;;;;;4535316;28;20044;-63
2021/09/09 02:57:50;;;;;;;7.00;5.03;;;;;;;;;;4534720;28;20033;-62
2021/09/09 03:00:00;;;;;;;7.00;4.63;;;;;;;;;;4535427;28;20052;-62
2021/09/09 03:02:11;;;;;;;6.00;4.57;;;;;;;;;;4550471;28;20047;-62
2021/09/09 03:04:21;;;;;;;6.33;4.53;;;;;;;;;;4536298;28;20040;-63
2021/09/09 03:06:32;;;;;;;6.20;4.90;;;;;;;;;;4538304;28;20086;-62
2021/09/09 03:08:42;;;;;;;6.40;4.63;;;;;;;;;;4537858;28;20025;-62
2021/09/09 03:10:53;;;;;;;6.47;4.50;;;;;;;;;;4536455;28;20041;-62
2021/09/09 03:13:03;;;;;;;6.37;4.50;;;;;;;;;;4537579;28;20119;-62
2021/09/09 03:15:13;;;;;;;6.33;4.63;;;;;;;;;;4538346;28;20037;-63
2021/09/09 03:17:24;;;;;;;6.23;4.77;;;;;;;;;;4537713;28;20037;-62
2021/09/09 03:19:34;;;;;;;7.57;5.27;;;;;;;;;;4532078;28;20396;-63
2021/09/09 03:21:45;;;;;;;6.30;4.80;;;;;;;;;;4537978;28;20149;-63
2021/09/09 03:23:55;;;;;;;7.10;4.97;;;;;;;;;;4536845;28;20028;-63
2021/09/09 03:26:06;;;;;;;5.73;4.50;;;;;;;;;;4537717;28;20073;-62
2021/09/09 03:28:17;;;;;;;6.57;4.60;;;;;;;;;;4535658;28;20096;-62
2021/09/09 03:30:28;;;;;;;7.07;5.37;;;;;;;;;;4537072;28;29320;-62
2021/09/09 03:32:38;;;;;;;5.93;4.53;;;;;;;;;;4537922;28;20041;-62
2021/09/09 03:34:49;;;;;;;6.77;4.90;;;;;;;;;;4537768;28;20124;-62
2021/09/09 03:36:59;;;;;;;6.40;4.63;;;;;;;;;;4537394;28;20112;-62
2021/09/09 03:39:10;;;;;;;7.47;5.20;;;;;;;;;;4537450;28;20029;-62
2021/09/09 03:41:21;;;;;;;7.23;5.30;;;;;;;;;;4537414;28;20060;-62
2021/09/09 03:43:31;;;;;;;6.55;4.95;;;;;;;;;;4536099;28;20036;-63
2021/09/09 03:45:41;;;;;;;8.33;4.73;;;;;;;;;;4537721;28;20119;-62
2021/09/09 03:47:52;;;;;;;7.17;4.87;;;;;;;;;;4537316;28;21776;-63
2021/09/09 03:50:03;;;;;;;6.60;4.80;;;;;;;;;;4536041;28;20390;-63
2021/09/09 03:52:13;;;;;;;7.00;4.60;;;;;;;;;;4537688;28;20654;-63
2021/09/09 03:54:24;;;;;;;6.13;4.63;;;;;;;;;;4537110;28;20051;-62
2021/09/09 03:56:34;;;;;;;6.60;4.47;;;;;;;;;;4537785;28;20666;-62
2021/09/09 03:58:45;;;;;;;6.60;4.63;;;;;;;;;;4537494;28;20120;-62
2021/09/09 04:00:55;;;;;;;6.47;4.70;;;;;;;;;;4545579;28;20121;-63
2021/09/09 04:03:06;;;;;;;6.07;4.73;;;;;;;;;;4537499;28;26877;-62
2021/09/09 04:05:16;;;;;;;6.63;4.30;;;;;;;;;;4537315;28;20055;-62
2021/09/09 04:07:26;;;;;;;5.70;4.70;;;;;;;;;;4552560;28;20028;-63
2021/09/09 04:09:37;;;;;;;6.70;4.27;;;;;;;;;;4537275;28;20029;-63
2021/09/09 04:11:47;;;;;;;6.63;4.73;;;;;;;;;;4537270;28;20064;-62
2021/09/09 04:13:58;;;;;;;6.50;4.80;;;;;;;;;;4532233;28;20145;-62
2021/09/09 04:16:08;;;;;;;6.10;4.60;;;;;;;;;;4537434;28;20040;-62
2021/09/09 04:18:19;;;;;;;6.60;4.57;;;;;;;;;;4537228;28;20484;-62
2021/09/09 04:20:29;;;;;;;6.47;4.63;;;;;;;;;;4536914;28;20087;-62
2021/09/09 04:22:40;;;;;;;6.63;4.67;;;;;;;;;;4536572;28;20041;-62
2021/09/09 04:24:50;;;;;;;6.50;4.70;;;;;;;;;;4537269;28;20055;-63
2021/09/09 04:27:01;;;;;;;7.70;4.93;;;;;;;;;;4536477;28;25890;-62
2021/09/09 04:29:12;;;;;;;8.20;4.88;;;;;;;;;;4535669;28;20826;-62
2021/09/09 04:31:22;;;;;;;6.77;4.87;;;;;;;;;;4536598;28;20130;-62
2021/09/09 04:33:32;;;;;;;6.77;5.00;;;;;;;;;;4536650;28;20467;-62
2021/09/09 04:35:43;;;;;;;6.73;4.73;;;;;;;;;;4531866;28;20041;-62
2021/09/09 04:37:53;;;;;;;7.20;4.50;;;;;;;;;;4536713;28;30361;-62
2021/09/09 04:40:04;;;;;;;7.77;4.97;;;;;;;;;;4536733;28;20048;-62
2021/09/09 04:42:15;;;;;;;6.90;5.30;;;;;;;;;;4536643;28;21222;-63
2021/09/09 04:44:25;;;;;;;5.73;4.13;;;;;;;;;;4536662;28;20036;-62
2021/09/09 04:46:36;;;;;;;7.70;5.30;;;;;;;;;;4537150;28;20033;-62
2021/09/09 04:48:46;;;;;;;6.63;4.60;;;;;;;;;;4535542;28;20057;-63
2021/09/09 04:50:56;;;;;;;6.00;4.60;;;;;;;;;;4551668;28;20537;-63
2021/09/09 04:53:07;;;;;;;4.87;3.90;;;;;;;;;;4531209;28;20080;-62
2021/09/09 04:55:17;;;;;;;5.87;4.20;;;;;;;;;;4537166;28;20029;-62
2021/09/09 04:57:28;;;;;;;6.53;4.80;;;;;;;;;;4536740;28;20541;-62
2021/09/09 04:59:38;;;;;;;6.03;4.10;;;;;;;;;;4536216;28;20028;-62
2021/09/09 05:01:49;;;;;;;5.43;4.13;;;;;;;;;;4537204;28;20524;-62
2021/09/09 05:03:59;;;;;;;5.40;4.33;;;;;;;;;;4536041;28;20616;-62
2021/09/09 05:06:09;;;;;;;5.70;4.47;;;;;;;;;;4536014;28;35511;-62
2021/09/09 05:08:20;;;;;;;6.10;4.37;;;;;;;;;;4532026;28;30978;-62
2021/09/09 05:10:30;;;;;;;6.83;4.50;;;;;;;;;;4534458;28;20039;-62
2021/09/09 05:12:41;;;;;;;7.10;4.93;;;;;;;;;;4536317;28;20071;-62
2021/09/09 05:14:51;;;;;;;6.77;4.40;;;;;;;;;;4535266;28;20051;-62
2021/09/09 05:17:02;;;;;;;6.83;5.00;;;;;;;;;;4536204;28;20540;-62
2021/09/09 05:19:12;;;;;;;2.70;2.40;;;;;;;;;;4536145;28;20067;-62
2021/09/09 05:21:22;;;;;;;3.93;2.97;;;;;;;;;;4535492;28;20388;-62
2021/09/09 05:23:33;;;;;;;3.40;2.80;;;;;;;;;;4535994;28;20742;-62
2021/09/09 05:25:43;;;;;;;4.40;3.00;;;;;;;;;;4550467;28;20031;-62
2021/09/09 05:27:54;;;;;;;3.43;2.93;;;;;;;;;;4535834;28;20037;-62
2021/09/09 05:30:04;;;;;;;4.73;2.87;;;;;;;;;;4536174;28;20029;-62
2021/09/09 05:32:15;;;;;;;3.95;3.03;;;;;;;;;;4534644;28;20634;-62
2021/09/09 05:34:25;;;;;;;3.27;2.83;;;;;;;;;;4510672;28;20040;-62
2021/09/09 05:36:36;;;;;;;3.77;2.90;;;;;;;;;;4534735;28;20048;-62
2021/09/09 05:38:47;;;;;;;3.90;3.30;;;;;;;;;;4535946;28;20647;-62
2021/09/09 05:40:57;;;;;;;3.90;2.80;;;;;;;;;;4535817;28;20045;-63
2021/09/09 05:43:08;;;;;;;3.20;2.70;;;;;;;;;;4536016;28;20356;-62
2021/09/09 05:45:19;;;;;;;3.20;2.40;;;;;;;;;;4531514;28;20040;-62
2021/09/09 05:47:29;;;;;;;2.90;2.50;;;;;;;;;;4529647;28;20560;-62
2021/09/09 05:49:40;;;;;;;4.10;3.20;;;;;;;;;;4535993;28;20037;-62
2021/09/09 05:51:50;;;;;;;5.17;3.00;;;;;;;;;;4536302;28;20037;-63
2021/09/09 05:54:02;;;;;;;8.30;3.03;;;;;;;;;;4534896;28;20041;-62
2021/09/09 05:56:12;;;;;;;3.72;2.90;;;;;;;;;;4536098;28;20569;-62
2021/09/09 05:58:23;;;;;;;5.37;3.07;;;;;;;;;;4535462;28;20033;-63
2021/09/09 06:00:33;;;;;;;4.43;3.07;;;;;;;;;;4535310;28;20037;-62
2021/09/09 06:02:46;;;;;;;3.43;2.63;;;;;;;;;;4536278;28;20044;-62
2021/09/09 06:04:59;;;;;;;3.63;2.75;;;;;;;;;;4535840;28;20036;-62
2021/09/09 06:07:09;;;;;;;5.22;3.03;;;;;;;;;;4550729;28;20074;-62
2021/09/09 06:09:19;;;;;;;5.00;3.17;;;;;;;;;;4529991;28;20047;-62
2021/09/09 06:11:30;;;;;;;4.13;3.00;;;;;;;;;;4536230;28;20096;-61
2021/09/09 06:13:40;;;;;;;3.93;2.80;;;;;;;;;;4551018;28;20100;-61
2021/09/09 06:15:51;;;;;;;3.93;3.00;;;;;;;;;;4535847;28;20078;-61
2021/09/09 06:18:01;;;;;;;5.03;3.30;;;;;;;;;;4532485;28;20036;-61
2021/09/09 06:20:12;;;;;;;9.30;4.17;;;;;;;;;;4532181;28;20077;-61
2021/09/09 06:22:23;;;;;;;10.98;5.47;;;;;;;;;;4535512;28;20037;-62
2021/09/09 06:24:33;;;;;;;11.73;4.80;;;;;;;;;;4533784;28;22578;-62
2021/09/09 06:26:43;;;;;;;15.67;7.10;;;;;;;;;;4535903;28;20072;-63
2021/09/09 06:28:54;;;;;;;15.80;6.63;;;;;;;;;;4535620;28;20033;-61
2021/09/09 06:31:05;;;;;;;20.63;7.83;;;;;;;;;;4534514;28;20489;-61
2021/09/09 06:33:15;;;;;;;19.67;7.18;;;;;;;;;;4535384;28;20123;-62
2021/09/09 06:35:26;;;;;;;18.03;7.20;;;;;;;;;;4535607;28;20037;-62
2021/09/09 06:37:36;;;;;;;18.83;6.87;;;;;;;;;;4535367;28;20118;-62
2021/09/09 06:39:46;;;;;;;19.10;7.43;;;;;;;;;;4538217;28;20036;-61
2021/09/09 06:41:57;;;;;;;14.90;7.07;;;;;;;;;;4538543;28;20037;-61
2021/09/09 06:44:08;;;;;;;17.90;7.25;;;;;;;;;;4537017;28;20041;-62
2021/09/09 06:46:18;;;;;;;17.33;6.67;;;;;;;;;;4532857;28;20112;-62
2021/09/09 06:48:29;;;;;;;17.93;6.93;;;;;;;;;;4536872;28;20035;-61
2021/09/09 06:50:39;;;;;;;17.42;7.22;;;;;;;;;;4536005;28;20041;-61
2021/09/09 06:52:50;;;;;;;18.27;7.37;;;;;;;;;;4538600;28;20078;-60
2021/09/09 06:55:00;;;;;;;16.73;6.87;;;;;;;;;;4538740;28;20037;-61
2021/09/09 06:57:11;;;;;;;16.63;7.00;;;;;;;;;;4538488;28;20083;-61
2021/09/09 06:59:21;;;;;;;15.13;6.83;;;;;;;;;;4538254;28;20090;-61
2021/09/09 07:01:32;;;;;;;19.27;6.87;;;;;;;;;;4536725;28;20100;-63
2021/09/09 07:03:42;;;;;;;16.97;6.70;;;;;;;;;;4536199;28;20047;-63
2021/09/09 07:05:53;;;;;;;14.17;6.33;;;;;;;;;;4534576;28;27304;-62
2021/09/09 07:08:03;;;;;;;18.93;6.80;;;;;;;;;;4536290;28;20033;-63
2021/09/09 07:10:14;;;;;;;15.90;6.37;;;;;;;;;;4553908;28;20546;-62
2021/09/09 07:12:24;;;;;;;15.80;6.33;;;;;;;;;;4537887;28;20083;-63
2021/09/09 07:14:35;;;;;;;14.57;6.53;;;;;;;;;;4538254;28;20028;-63
2021/09/09 07:16:46;;;;;;;15.03;6.00;;;;;;;;;;4538213;28;20032;-63
2021/09/09 07:18:57;;;;;;;17.83;6.57;;;;;;;;;;4538103;28;20510;-63
2021/09/09 07:21:07;;;;;;;15.80;6.23;;;;;;;;;;4537419;28;20037;-63
2021/09/09 07:23:18;;;;;;;15.97;7.00;;;;;;;;;;4537842;28;20029;-62
2021/09/09 07:25:28;;;;;;;12.27;5.50;;;;;;;;;;4525790;28;20601;-63
2021/09/09 07:27:39;;;;;;;15.93;5.73;;;;;;;;;;4537476;28;20044;-63
2021/09/09 07:29:49;;;;;;;13.40;5.90;;;;;;;;;;4537968;28;20056;-63
2021/09/09 07:32:00;;;;;;;11.87;5.43;;;;;;;;;;4537509;28;22346;-63
2021/09/09 07:34:11;;;;;;;12.53;5.70;;;;;;;;;;4537659;28;20024;-63
2021/09/09 07:36:21;;;;;;;11.40;5.75;;;;;;;;;;4553793;28;20032;-63
2021/09/09 07:38:32;;;;;;;12.73;5.47;;;;;;;;;;4538115;28;20029;-63
2021/09/09 07:40:42;;;;;;;13.53;5.90;;;;;;;;;;4537560;28;20839;-62
2021/09/09 07:42:53;;;;;;;11.63;5.20;;;;;;;;;;4536242;28;20167;-63
2021/09/09 07:45:05;;;;;;;9.97;4.97;;;;;;;;;;4537210;28;22018;-63
2021/09/09 07:47:15;;;;;;;9.35;5.00;;;;;;;;;;4535829;28;20612;-63
2021/09/09 07:49:25;;;;;;;10.73;5.30;;;;;;;;;;4535599;28;20041;-62
2021/09/09 07:51:36;;;;;;;11.57;5.17;;;;;;;;;;4535866;28;20029;-63
2021/09/09 07:53:46;;;;;;;10.67;4.97;;;;;;;;;;4537074;28;20528;-63
2021/09/09 07:55:57;;;;;;;12.43;5.03;;;;;;;;;;4553331;28;20037;-63
2021/09/09 07:58:07;;;;;;;13.03;4.57;;;;;;;;;;4537159;28;20037;-63
2021/09/09 08:00:18;;;;;;;10.37;4.87;;;;;;;;;;4536661;28;20541;-62
2021/09/09 08:02:28;;;;;;;11.93;5.45;;;;;;;;;;4536372;28;20119;-63
2021/09/09 08:04:39;;;;;;;11.67;4.73;;;;;;;;;;4537954;28;20043;-63
2021/09/09 08:06:49;;;;;;;9.40;4.70;;;;;;;;;;4537775;28;20033;-62
2021/09/09 08:08:59;;;;;;;12.87;4.70;;;;;;;;;;4537818;28;20033;-62
2021/09/09 08:11:10;;;;;;;9.33;4.47;;;;;;;;;;4537676;28;20048;-63
2021/09/09 08:13:21;;;;;;;8.57;4.60;;;;;;;;;;4536209;28;20116;-63
2021/09/09 08:15:31;;;;;;;9.77;4.20;;;;;;;;;;4537496;28;20044;-63
2021/09/09 08:17:42;;;;;;;10.77;4.53;;;;;;;;;;4536154;28;20468;-63
2021/09/09 08:19:52;;;;;;;11.30;4.55;;;;;;;;;;4536230;28;20065;-64
2021/09/09 08:22:03;;;;;;;9.27;4.50;;;;;;;;;;4518803;28;20052;-63
2021/09/09 08:24:14;;;;;;;7.73;4.10;;;;;;;;;;4537149;28;20037;-62
2021/09/09 08:26:24;;;;;;;10.47;4.30;;;;;;;;;;4536502;28;20025;-62
2021/09/09 08:28:35;;;;;;;10.53;4.40;;;;;;;;;;4536577;28;20026;-62
2021/09/09 08:30:47;;;;;;;11.52;4.60;;;;;;;;;;4535498;28;20037;-62
2021/09/09 08:32:57;;;;;;;;;;;;;;;;;;4552512;28;20036;-62
2021/09/09 08:35:08;;;;;;;8.90;4.27;;;;;;;;;;4536575;28;20741;-62
2021/09/09 08:37:20;;;;;;;9.85;4.20;;;;;;;;;;4535364;28;20172;-62
2021/09/09 08:39:30;;;;;;;12.85;4.72;;;;;;;;;;4535074;28;20440;-62
2021/09/09 08:41:41;;;;;;;8.37;4.20;;;;;;;;;;4537330;28;20790;-62
2021/09/09 08:43:52;;;;;;;9.65;4.00;;;;;;;;;;4535125;28;20033;-62
2021/09/09 08:46:03;;;;;;;9.37;4.37;;;;;;;;;;4525559;28;20033;-62
2021/09/09 08:48:15;;;;;;;;;;;;;;;;;;4537479;28;20033;-62
2021/09/09 08:50:25;;;;;;;8.95;4.53;;;;;;;;;;4552037;28;19916;-62
2021/09/09 08:52:36;;;;;;;8.17;4.40;;;;;;;;;;4536433;28;20033;-62
2021/09/09 08:54:47;;;;;;;11.77;4.95;;;;;;;;;;4536696;28;20037;-62
2021/09/09 08:56:57;;;;;;;7.57;3.70;;;;;;;;;;4536451;28;20490;-63
2021/09/09 08:59:08;;;;;;;7.55;4.10;;;;;;;;;;4545253;28;20043;-63
2021/09/09 09:01:19;;;;;;;9.50;4.27;;;;;;;;;;4535531;28;20076;-62
2021/09/09 09:03:44;;;;;;;8.70;3.70;;;;;;;;;;4535362;28;20044;-62
2021/09/09 09:05:55;;;;;;;9.20;4.25;;;;;;;;;;4536490;28;20589;-63
2021/09/09 09:08:06;;;;;;;9.40;4.50;;;;;;;;;;4534812;28;20421;-62
2021/09/09 09:10:18;;;;;;;12.18;4.57;;;;;;;;;;4531682;28;20755;-62
2021/09/09 09:12:47;;;;;;;10.43;4.55;;;;;;;;;;4534636;28;20045;-61
2021/09/09 09:15:19;;;;;;;11.88;4.72;;;;;;;;;;4534414;28;20674;-62
2021/09/09 09:17:29;;;;;;;12.32;4.57;;;;;;;;;;4514604;28;20062;-62
2021/09/09 09:19:41;;;;;;;11.93;4.90;;;;;;;;;;4533254;28;20045;-62
2021/09/09 09:22:10;;;;;;;12.02;4.60;;;;;;;;;;4534762;28;20102;-62
2021/09/09 09:24:21;;;;;;;13.55;5.00;;;;;;;;;;4530494;28;20094;-66
2021/09/09 09:26:32;;;;;;;12.50;4.18;;;;;;;;;;4534582;28;20128;-59
2021/09/09 09:28:57;;;;;;;9.47;3.90;;;;;;;;;;4543830;28;20047;-62
2021/09/09 09:31:25;;;;;;;10.68;4.57;;;;;;;;;;4551639;28;20029;-62
2021/09/09 09:33:38;;;;;;;8.85;3.97;;;;;;;;;;4501528;28;20048;-64
2021/09/09 09:35:49;;;;;;;13.63;4.70;;;;;;;;;;4507140;28;20104;-62
2021/09/09 09:38:06;;;;;;;11.10;4.10;;;;;;;;;;4536321;28;20048;-62
2021/09/09 09:40:31;;;;;;;11.63;4.15;;;;;;;;;;4525107;28;20365;-62
2021/09/09 09:42:42;;;;;;;10.18;3.83;;;;;;;;;;4535214;28;20037;-63
2021/09/09 09:44:53;;;;;;;;;;;;;;;;;;4536517;28;20112;-63
2021/09/09 09:47:33;;;;;;;11.10;3.70;;;;;;;;;;4533662;28;19916;-63
2021/09/09 09:49:45;;;;;;;9.65;4.25;;;;;;;;;;4535845;28;20076;-63
2021/09/09 09:52:00;;;;;;;8.25;3.70;;;;;;;;;;4516987;28;20047;-61
2021/09/09 09:54:13;;;;;;;8.70;3.63;;;;;;;;;;4515063;28;20139;-61
2021/09/09 09:56:43;;;;;;;12.07;4.13;;;;;;;;;;4530677;28;20037;-64
2021/09/09 09:58:53;;;;;;;12.45;4.15;;;;;;;;;;4534696;28;20064;-63
2021/09/09 10:01:04;;;;;;;12.63;4.55;;;;;;;;;;4525613;28;20505;-61
2021/09/09 10:03:14;;;;;;;11.63;3.70;;;;;;;;;;4519830;28;20088;-61
2021/09/09 10:05:25;;;;;;;12.33;3.70;;;;;;;;;;4497846;28;20526;-61
2021/09/09 10:07:36;;;;;;;9.10;3.95;;;;;;;;;;4517725;28;20060;-61
2021/09/09 10:09:47;;;;;;;6.90;3.50;;;;;;;;;;4551604;28;20503;-61
2021/09/09 10:11:57;;;;;;;9.93;3.70;;;;;;;;;;4534833;28;20025;-61
2021/09/09 10:14:08;;;;;;;9.40;3.70;;;;;;;;;;4552831;28;20091;-61
2021/09/09 10:16:21;;;;;;;4.85;2.65;;;;;;;;;;4508572;27;20049;-60
2021/09/09 10:18:32;;;;;;;5.45;3.70;;;;;;;;;;4523569;28;20040;-61
2021/09/09 10:20:43;;;;;;;4.93;3.60;;;;;;;;;;4535490;28;20425;-61
2021/09/09 10:23:00;;;;;;;;;;;;;;;;;;4537438;28;20120;-61
2021/09/09 10:25:14;;;;;;;5.32;3.45;;;;;;;;;;4537103;28;19922;-61
2021/09/09 10:27:27;;;;;;;4.93;3.33;;;;;;;;;;4533065;28;20300;-61
2021/09/09 10:29:53;;;;;;;4.43;3.42;;;;;;;;;;4535245;28;20083;-61
2021/09/09 10:32:04;;;;;;;4.28;3.30;;;;;;;;;;4535452;28;20021;-60
2021/09/09 10:34:22;;;;;;;5.00;3.20;;;;;;;;;;4536895;28;20037;-60
2021/09/09 10:36:40;;;;;;;4.35;3.25;;;;;;;;;;4536352;28;20036;-60
2021/09/09 10:38:51;;;;;;;4.10;3.10;;;;;;;;;;4535026;28;20592;-60
2021/09/09 10:41:03;;;;;;;5.43;3.40;;;;;;;;;;4544559;28;20044;-60
2021/09/09 10:43:22;;;;;;;5.25;3.60;;;;;;;;;;4535448;28;20729;-60
2021/09/09 10:45:36;;;;;;;4.78;3.30;;;;;;;;;;4535036;28;20040;-60
2021/09/09 10:47:50;;;;;;;4.13;3.10;;;;;;;;;;4536562;28;20041;-61
2021/09/09 10:50:02;;;;;;;5.05;3.03;;;;;;;;;;4536979;28;20014;-60
2021/09/09 10:52:14;;;;;;;4.03;3.13;;;;;;;;;;4525976;28;20037;-61
2021/09/09 10:54:24;;;;;;;5.25;3.45;;;;;;;;;;4536944;28;20025;-60
2021/09/09 10:56:36;;;;;;;4.27;3.23;;;;;;;;;;4536785;28;20041;-61
2021/09/09 10:59:04;;;;;;;4.53;3.20;;;;;;;;;;4537017;28;20033;-60
2021/09/09 11:01:15;;;;;;;3.78;3.30;;;;;;;;;;4534835;28;20052;-61
2021/09/09 11:03:45;;;;;;;4.30;3.37;;;;;;;;;;4536605;28;20037;-61
2021/09/09 11:05:56;;;;;;;3.80;2.78;;;;;;;;;;4535040;28;20037;-61
2021/09/09 11:08:06;;;;;;;4.43;2.93;;;;;;;;;;4534849;28;24170;-61
2021/09/09 11:10:17;;;;;;;3.73;3.20;;;;;;;;;;4536099;28;20037;-61
2021/09/09 11:12:37;;;;;;;4.53;3.00;;;;;;;;;;4536782;28;20488;-61
2021/09/09 11:14:47;;;;;;;5.15;3.38;;;;;;;;;;4535101;28;20029;-61
2021/09/09 11:16:58;;;;;;;4.13;3.17;;;;;;;;;;4534929;28;20257;-61
2021/09/09 11:19:09;;;;;;;4.27;3.10;;;;;;;;;;4517514;28;20040;-61
2021/09/09 11:21:24;;;;;;;5.13;3.50;;;;;;;;;;4535363;28;20276;-61
2021/09/09 11:23:36;;;;;;;3.97;3.22;;;;;;;;;;4551415;28;20610;-62
2021/09/09 11:25:48;;;;;;;4.57;3.00;;;;;;;;;;4554928;28;20028;-60
2021/09/09 11:28:11;;;;;;;3.72;3.08;;;;;;;;;;4537489;28;20032;-60
2021/09/09 11:30:21;;;;;;;5.05;3.17;;;;;;;;;;4537888;28;20041;-60
2021/09/09 11:32:32;;;;;;;4.40;2.60;;;;;;;;;;4539059;28;20033;-60
2021/09/09 11:34:42;;;;;;;4.17;3.17;;;;;;;;;;4538806;28;20048;-60
2021/09/09 11:36:53;;;;;;;4.37;3.10;;;;;;;;;;4539507;28;20033;-61
2021/09/09 11:39:10;;;;;;;3.75;3.03;;;;;;;;;;4539333;28;20135;-60
2021/09/09 11:41:22;;;;;;;4.15;3.28;;;;;;;;;;4534495;28;20715;-61
2021/09/09 11:43:32;;;;;;;4.38;3.08;;;;;;;;;;4538674;28;20028;-61
2021/09/09 11:45:52;;;;;;;5.27;3.43;;;;;;;;;;4539297;28;20436;-61
2021/09/09 11:48:05;;;;;;;3.72;2.80;;;;;;;;;;4537979;28;20025;-61
2021/09/09 11:50:16;;;;;;;3.38;2.72;;;;;;;;;;4538323;28;20071;-61
2021/09/09 11:52:26;;;;;;;4.77;3.40;;;;;;;;;;4538951;28;20117;-60
2021/09/09 11:54:38;;;;;;;4.33;3.10;;;;;;;;;;4539158;28;20502;-61
2021/09/09 11:56:49;;;;;;;3.70;2.90;;;;;;;;;;4537732;28;20799;-60
2021/09/09 11:59:02;;;;;;;4.13;3.17;;;;;;;;;;4539209;28;20116;-61
2021/09/09 12:01:12;;;;;;;4.60;3.30;;;;;;;;;;4538114;28;20037;-62
2021/09/09 12:03:23;;;;;;;4.87;3.13;;;;;;;;;;4538409;28;23796;-61
2021/09/09 12:05:34;;;;;;;5.90;3.40;;;;;;;;;;4537549;28;20037;-61
2021/09/09 12:07:45;;;;;;;3.60;2.90;;;;;;;;;;4537223;28;20037;-61
2021/09/09 12:10:15;;;;;;;4.78;3.45;;;;;;;;;;4538620;28;21392;-61
2021/09/09 12:12:29;;;;;;;4.65;3.20;;;;;;;;;;4539258;28;20116;-61
2021/09/09 12:14:40;;;;;;;4.93;3.67;;;;;;;;;;4536970;28;20619;-61
2021/09/09 12:17:14;;;;;;;4.87;3.27;;;;;;;;;;4535904;28;20140;-61
2021/09/09 12:19:24;;;;;;;4.70;3.15;;;;;;;;;;4539260;28;20128;-61
2021/09/09 12:21:35;;;;;;;4.63;3.40;;;;;;;;;;4554207;28;21051;-61
2021/09/09 12:24:10;;;;;;;5.40;3.30;;;;;;;;;;4539149;28;20037;-61
2021/09/09 12:26:20;;;;;;;5.38;3.10;;;;;;;;;;4537308;28;20040;-61
2021/09/09 12:28:31;;;;;;;4.23;3.30;;;;;;;;;;4538894;28;20033;-61
2021/09/09 12:30:48;;;;;;;4.57;3.03;;;;;;;;;;4538525;28;20045;-61
2021/09/09 12:33:01;;;;;;;4.15;3.30;;;;;;;;;;4539005;28;20075;-61
2021/09/09 12:35:16;;;;;;;4.35;3.08;;;;;;;;;;4538844;28;20036;-62
2021/09/09 12:37:27;;;;;;;4.65;3.20;;;;;;;;;;4554298;28;20083;-61
2021/09/09 12:39:44;;;;;;;4.33;2.80;;;;;;;;;;4538369;28;20037;-61
2021/09/09 12:42:04;;;;;;;4.07;3.22;;;;;;;;;;4526221;28;20100;-60
2021/09/09 12:44:17;;;;;;;4.43;3.15;;;;;;;;;;4538191;28;20028;-62
2021/09/09 12:46:45;;;;;;;4.38;2.83;;;;;;;;;;4520674;28;20041;-61
2021/09/09 12:49:12;;;;;;;4.60;3.17;;;;;;;;;;4537473;28;20040;-61
2021/09/09 12:51:23;;;;;;;3.72;2.80;;;;;;;;;;4537135;28;20032;-61
2021/09/09 12:53:35;;;;;;;3.77;3.00;;;;;;;;;;4537683;28;20540;-61
2021/09/09 12:55:46;;;;;;;4.93;3.33;;;;;;;;;;4537856;28;20037;-61
2021/09/09 12:57:57;;;;;;;3.80;2.80;;;;;;;;;;4553501;28;20028;-61
2021/09/09 13:00:08;;;;;;;4.37;3.20;;;;;;;;;;4536220;28;20103;-61
2021/09/09 13:02:21;;;;;;;4.25;2.95;;;;;;;;;;4537939;28;20569;-61
2021/09/09 13:04:32;;;;;;;3.45;2.00;;;;;;;;;;4537409;28;20119;-61
2021/09/09 13:06:43;;;;;;;3.47;1.87;;;;;;;;;;4553779;28;20091;-61
2021/09/09 13:08:54;;;;;;;;;;;;;;;;;;4538422;28;20029;-61
2021/09/09 13:11:05;;;;;;;3.60;2.00;;;;;;;;;;4536917;28;19944;-61